Time;durP1;ratioP1;P1;durP2;ratioP2;P2;SDS_P1;SDS_P2;PMS_P1;PMS_P2;Temp;Humidity;BMP_temperature;BMP_pressure;BME280_temperature;BME280_humidity;BME280_pressure;Samples;Min_cycle;Max_cycle;Signal;HPM_P1;HPM_P2
2021/03/21 00:00:50;;;;;;;48.92;21.60;;;6.50;99.90;;;;;;2087277;28;20076;-70
2021/03/21 00:01:51;;;;;;;47.45;21.23;;;6.50;99.90;;;;;;2085500;28;20095;-71
2021/03/21 00:02:52;;;;;;;47.92;21.17;;;6.50;99.90;;;;;;2086312;28;20439;-71
2021/03/21 00:03:53;;;;;;;45.70;20.30;;;6.50;99.90;;;;;;2087908;28;20024;-71
2021/03/21 00:04:54;;;;;;;36.67;18.42;;;6.60;99.90;;;;;;2087480;28;20059;-72
2021/03/21 00:05:55;;;;;;;58.97;22.42;;;6.50;99.90;;;;;;2090880;28;20470;-72
2021/03/21 00:06:55;;;;;;;67.50;25.15;;;6.60;99.90;;;;;;2096308;28;20028;-71
2021/03/21 00:07:59;;;;;;;74.88;29.60;;;6.60;99.90;;;;;;2089556;28;20075;-72
2021/03/21 00:09:00;;;;;;;69.35;29.38;;;6.60;99.90;;;;;;2079981;28;20493;-71
2021/03/21 00:10:02;;;;;;;59.42;25.08;;;6.60;99.90;;;;;;2096020;28;20013;-72
2021/03/21 00:11:06;;;;;;;47.53;19.60;;;6.60;99.90;;;;;;2095279;28;20114;-71
2021/03/21 00:12:08;;;;;;;42.17;20.25;;;6.60;99.90;;;;;;2087715;28;20026;-73
2021/03/21 00:13:09;;;;;;;46.78;21.27;;;6.70;99.90;;;;;;2084834;28;20497;-72
2021/03/21 00:14:09;;;;;;;41.88;21.95;;;6.70;99.90;;;;;;2081764;28;20112;-72
2021/03/21 00:15:11;;;;;;;41.95;20.08;;;6.70;99.90;;;;;;2082227;28;20073;-71
2021/03/21 00:16:11;;;;;;;42.33;21.30;;;6.70;99.90;;;;;;2086276;28;20049;-72
2021/03/21 00:17:12;;;;;;;37.03;20.95;;;6.70;99.90;;;;;;2090244;28;20758;-72
2021/03/21 00:18:13;;;;;;;36.13;19.48;;;6.70;99.90;;;;;;2090078;28;20017;-72
2021/03/21 00:19:14;;;;;;;39.72;21.02;;;6.70;99.90;;;;;;2090067;28;20052;-72
2021/03/21 00:20:17;;;;;;;36.22;20.92;;;6.70;99.90;;;;;;2087526;28;20104;-72
2021/03/21 00:21:18;;;;;;;43.45;22.52;;;6.70;99.90;;;;;;2083749;28;20025;-72
2021/03/21 00:22:19;;;;;;;39.42;21.83;;;6.70;99.90;;;;;;2082030;28;20057;-72
2021/03/21 00:23:20;;;;;;;37.42;20.75;;;6.70;99.90;;;;;;2092737;28;20028;-71
2021/03/21 00:24:21;;;;;;;36.60;21.40;;;6.70;99.90;;;;;;2106714;28;20104;-73
2021/03/21 00:25:24;;;;;;;36.40;21.35;;;6.70;99.90;;;;;;2079988;28;20018;-72
2021/03/21 00:26:25;;;;;;;39.78;20.88;;;6.70;99.90;;;;;;2074628;28;20101;-72
2021/03/21 00:27:25;;;;;;;41.65;21.70;;;6.70;99.90;;;;;;2090059;28;20017;-71
2021/03/21 00:28:29;;;;;;;45.42;22.90;;;6.70;99.90;;;;;;2087286;28;20049;-72
2021/03/21 00:29:30;;;;;;;42.58;21.80;;;6.70;99.90;;;;;;2082650;28;20079;-73
2021/03/21 00:30:37;;;;;;;45.20;23.55;;;6.70;99.90;;;;;;2082338;28;20030;-72
2021/03/21 00:31:38;;;;;;;49.40;24.45;;;6.70;99.90;;;;;;2098343;28;20054;-72
2021/03/21 00:32:38;;;;;;;53.03;24.05;;;6.70;99.90;;;;;;2095671;28;20036;-72
2021/03/21 00:33:40;;;;;;;50.42;25.40;;;6.70;99.90;;;;;;2082498;28;20026;-72
2021/03/21 00:34:41;;;;;;;;;;;6.70;99.90;;;;;;2082984;28;20536;-72
2021/03/21 00:35:42;;;;;;;47.47;24.05;;;6.70;99.90;;;;;;2082254;28;20004;-70
2021/03/21 00:36:42;;;;;;;45.50;24.02;;;6.80;99.90;;;;;;2080138;28;20030;-69
2021/03/21 00:37:43;;;;;;;47.50;24.52;;;6.70;99.90;;;;;;2082384;28;20025;-73
2021/03/21 00:38:48;;;;;;;45.22;23.65;;;6.70;99.90;;;;;;2082370;28;20068;-72
2021/03/21 00:39:48;;;;;;;45.88;22.45;;;6.70;99.90;;;;;;2082539;28;20039;-70
2021/03/21 00:40:50;;;;;;;44.28;22.60;;;6.70;99.90;;;;;;2089066;28;20036;-73
2021/03/21 00:41:50;;;;;;;47.03;23.77;;;6.70;99.90;;;;;;2089913;28;20483;-72
2021/03/21 00:42:51;;;;;;;42.25;22.73;;;6.80;99.90;;;;;;2087439;28;20329;-71
2021/03/21 00:43:55;;;;;;;46.70;23.30;;;6.80;99.90;;;;;;2081752;28;20028;-72
2021/03/21 00:44:55;;;;;;;37.78;21.35;;;6.80;99.90;;;;;;2082185;28;20022;-71
2021/03/21 00:45:56;;;;;;;37.30;21.80;;;6.80;99.90;;;;;;2082275;28;20017;-71
2021/03/21 00:46:57;;;;;;;40.17;22.00;;;6.80;99.90;;;;;;2083511;28;20033;-71
2021/03/21 00:47:57;;;;;;;42.20;22.67;;;6.80;99.90;;;;;;2090639;28;20044;-71
2021/03/21 00:48:58;;;;;;;36.05;20.77;;;6.80;99.90;;;;;;2090472;28;20092;-71
2021/03/21 00:49:59;;;;;;;32.50;17.00;;;6.80;99.90;;;;;;2090603;28;20064;-71
2021/03/21 00:51:00;;;;;;;30.00;16.08;;;6.80;99.90;;;;;;2082989;28;20025;-71
2021/03/21 00:52:01;;;;;;;32.33;17.13;;;6.80;99.90;;;;;;2081222;28;20028;-71
2021/03/21 00:53:01;;;;;;;31.60;17.75;;;6.90;99.90;;;;;;2079419;28;20104;-71
2021/03/21 00:54:02;;;;;;;27.20;15.48;;;6.90;99.90;;;;;;2082170;28;20017;-71
2021/03/21 00:55:05;;;;;;;25.17;15.65;;;6.90;99.90;;;;;;2081627;28;20083;-71
2021/03/21 00:56:08;;;;;;;25.27;15.30;;;6.90;99.90;;;;;;2088307;28;20020;-71
2021/03/21 00:57:09;;;;;;;28.88;16.98;;;6.90;99.90;;;;;;2090523;28;20576;-72
2021/03/21 00:58:10;;;;;;;23.77;14.95;;;6.90;99.90;;;;;;2090790;28;20025;-71
2021/03/21 00:59:11;;;;;;;24.13;15.48;;;6.90;99.90;;;;;;2079784;28;20030;-71
2021/03/21 01:00:33;;;;;;;26.50;14.50;;;6.90;99.90;;;;;;2075243;28;20034;-72
2021/03/21 01:01:35;;;;;;;26.52;15.02;;;6.90;99.90;;;;;;2080334;28;20099;-71
2021/03/21 01:02:35;;;;;;;22.70;14.48;;;6.90;99.90;;;;;;2081806;28;20096;-71
2021/03/21 01:03:36;;;;;;;23.23;15.05;;;6.90;99.90;;;;;;2081686;28;20021;-72
2021/03/21 01:04:36;;;;;;;25.10;15.32;;;6.90;99.90;;;;;;2081567;28;20014;-71
2021/03/21 01:05:46;;;;;;;25.20;15.05;;;6.90;99.90;;;;;;2083040;28;20025;-73
2021/03/21 01:06:47;;;;;;;24.15;14.15;;;6.90;99.90;;;;;;2089043;28;20079;-71
2021/03/21 01:07:51;;;;;;;24.38;14.38;;;7.00;99.90;;;;;;2081325;28;20021;-71
2021/03/21 01:08:56;;;;;;;23.63;14.27;;;7.00;99.90;;;;;;2082309;28;20022;-71
2021/03/21 01:09:56;;;;;;;21.20;13.80;;;7.00;99.90;;;;;;2081632;28;20025;-73
2021/03/21 01:11:11;;;;;;;24.75;14.85;;;7.00;99.90;;;;;;2082751;28;20399;-72
2021/03/21 01:12:12;;;;;;;20.38;13.43;;;7.00;99.90;;;;;;2081870;28;20087;-73
2021/03/21 01:13:12;;;;;;;22.65;14.10;;;7.00;99.90;;;;;;2082030;28;20018;-71
2021/03/21 01:14:13;;;;;;;24.73;13.48;;;7.00;99.90;;;;;;2083730;28;20053;-72
2021/03/21 01:15:14;;;;;;;26.85;14.40;;;7.00;99.90;;;;;;2079558;28;20109;-72
2021/03/21 01:16:40;;;;;;;23.48;14.00;;;7.00;99.90;;;;;;2082126;28;20032;-72
2021/03/21 01:17:41;;;;;;;25.65;13.35;;;7.00;99.90;;;;;;2073638;28;20041;-70
2021/03/21 01:18:41;;;;;;;20.85;13.73;;;6.90;99.90;;;;;;2073181;28;20064;-71
2021/03/21 01:19:42;;;;;;;24.33;14.77;;;7.00;99.90;;;;;;2077043;28;20108;-72
2021/03/21 01:20:44;;;;;;;24.45;15.10;;;7.00;99.90;;;;;;2077816;28;20030;-71
2021/03/21 01:21:45;;;;;;;26.50;14.52;;;7.00;99.90;;;;;;2068819;28;20022;-71
2021/03/21 01:22:47;;;;;;;22.33;13.38;;;7.00;99.90;;;;;;2081568;28;20025;-72
2021/03/21 01:23:48;;;;;;;24.55;14.45;;;7.00;99.90;;;;;;2088494;28;20109;-72
2021/03/21 01:24:49;;;;;;;23.48;14.43;;;7.00;99.90;;;;;;2088177;28;20036;-72
2021/03/21 01:25:50;;;;;;;22.65;14.38;;;7.00;99.90;;;;;;2081200;28;20029;-73
2021/03/21 01:26:52;;;;;;;25.02;14.95;;;7.00;99.90;;;;;;2076882;28;20024;-72
2021/03/21 01:27:54;;;;;;;22.27;13.48;;;7.00;99.90;;;;;;2088405;28;20020;-71
2021/03/21 01:28:57;;;;;;;24.17;14.10;;;7.00;99.90;;;;;;2081235;28;20021;-72
2021/03/21 01:29:57;;;;;;;22.15;14.02;;;7.00;99.90;;;;;;2082157;28;20100;-72
2021/03/21 01:31:00;;;;;;;27.80;14.35;;;7.00;99.90;;;;;;2082173;28;20026;-72
2021/03/21 01:32:01;;;;;;;21.98;13.55;;;7.00;99.90;;;;;;2081381;28;20022;-72
2021/03/21 01:33:02;;;;;;;20.98;13.80;;;7.00;99.90;;;;;;2081143;28;20486;-71
2021/03/21 01:34:03;;;;;;;22.23;13.50;;;7.00;99.90;;;;;;2081383;28;20025;-71
2021/03/21 01:35:05;;;;;;;22.88;13.98;;;7.00;99.90;;;;;;2082000;28;20528;-71
2021/03/21 01:36:08;;;;;;;;;;;7.00;99.90;;;;;;2081494;28;20067;-72
2021/03/21 01:37:09;;;;;;;22.40;13.68;;;7.00;99.90;;;;;;2079162;28;19955;-72
2021/03/21 01:38:10;;;;;;;21.75;13.77;;;7.00;99.90;;;;;;2073652;28;20038;-71
2021/03/21 01:39:21;;;;;;;20.73;13.45;;;7.00;99.90;;;;;;2096755;28;20016;-71
2021/03/21 01:40:22;;;;;;;22.40;13.60;;;7.00;99.90;;;;;;2088096;28;20557;-72
2021/03/21 01:41:29;;;;;;;22.52;13.35;;;7.00;99.90;;;;;;2081439;28;20029;-71
2021/03/21 01:42:39;;;;;;;23.48;13.93;;;7.00;99.90;;;;;;2081021;28;20103;-72
2021/03/21 01:43:41;;;;;;;24.08;14.15;;;7.00;99.90;;;;;;2083447;28;20049;-73
2021/03/21 01:44:44;;;;;;;24.55;14.18;;;7.00;99.90;;;;;;2090190;28;20021;-73
2021/03/21 01:45:49;;;;;;;22.80;13.77;;;7.00;99.90;;;;;;2078874;28;20014;-73
2021/03/21 01:46:56;;;;;;;22.50;14.18;;;7.00;99.90;;;;;;2082293;28;20040;-71
2021/03/21 01:47:58;;;;;;;24.20;13.80;;;7.00;99.90;;;;;;2090202;28;20512;-72
2021/03/21 01:49:00;;;;;;;22.27;13.45;;;7.00;99.90;;;;;;2085543;28;20490;-72
2021/03/21 01:50:24;;;;;;;24.00;14.27;;;7.00;99.90;;;;;;2081389;28;20029;-71
2021/03/21 01:51:37;;;;;;;23.20;13.98;;;7.00;99.90;;;;;;2072834;28;20030;-72
2021/03/21 01:52:42;;;;;;;22.38;13.73;;;7.00;99.90;;;;;;2076480;28;20052;-71
2021/03/21 01:53:45;;;;;;;21.08;13.65;;;7.00;99.90;;;;;;2074460;28;20030;-71
2021/03/21 01:54:45;;;;;;;22.35;13.43;;;7.00;99.90;;;;;;2081944;28;20020;-71
2021/03/21 01:55:47;;;;;;;21.42;13.55;;;7.00;99.90;;;;;;2097668;28;20024;-72
2021/03/21 01:56:48;;;;;;;24.27;13.55;;;7.00;99.90;;;;;;2097537;28;20013;-71
2021/03/21 01:57:50;;;;;;;23.83;13.73;;;7.00;99.90;;;;;;2088348;28;20032;-71
2021/03/21 01:59:14;;;;;;;23.30;13.48;;;7.00;99.90;;;;;;2083342;28;20537;-71
2021/03/21 02:00:15;;;;;;;24.38;13.77;;;7.00;99.90;;;;;;2080930;28;20028;-71
2021/03/21 02:01:21;;;;;;;25.77;13.88;;;7.00;99.90;;;;;;2104365;28;20431;-71
2021/03/21 02:02:22;;;;;;;21.38;13.35;;;7.00;99.90;;;;;;2097950;28;20028;-71
2021/03/21 02:03:23;;;;;;;23.98;14.35;;;7.00;99.90;;;;;;2081257;28;20022;-72
2021/03/21 02:04:24;;;;;;;24.67;14.15;;;7.00;99.90;;;;;;2086486;28;20021;-72
2021/03/21 02:05:25;;;;;;;22.77;14.68;;;7.00;99.90;;;;;;2084102;28;20044;-71
2021/03/21 02:06:41;;;;;;;20.77;13.05;;;7.00;99.90;;;;;;2081020;28;20093;-72
2021/03/21 02:08:31;;;;;;;26.40;13.98;;;7.00;99.90;;;;;;2077763;28;20050;-71
2021/03/21 02:09:44;;;;;;;23.70;14.27;;;7.00;99.90;;;;;;2081041;28;20037;-72
2021/03/21 02:11:13;;;;;;;31.50;15.07;;;7.00;99.90;;;;;;2080409;28;20080;-72
2021/03/21 02:12:33;;;;;;;20.60;13.23;;;7.00;99.90;;;;;;2073543;28;20055;-72
2021/03/21 02:13:45;;;;;;;21.08;13.13;;;7.00;99.90;;;;;;2089145;28;20028;-72
2021/03/21 02:15:12;;;;;;;25.80;14.38;;;7.00;99.90;;;;;;2085803;28;20032;-72
2021/03/21 02:16:24;;;;;;;24.67;13.65;;;7.00;99.90;;;;;;2081322;28;20511;-72
2021/03/21 02:17:33;;;;;;;21.60;13.00;;;7.00;99.90;;;;;;2078141;28;20021;-71
2021/03/21 02:18:47;;;;;;;24.17;14.13;;;7.00;99.90;;;;;;2072965;28;20030;-72
2021/03/21 02:20:10;;;;;;;28.30;14.55;;;7.10;99.90;;;;;;2080347;28;20032;-71
2021/03/21 02:21:18;;;;;;;22.20;13.30;;;7.10;99.90;;;;;;2089816;28;20048;-72
2021/03/21 02:22:45;;;;;;;25.63;14.45;;;7.10;99.90;;;;;;2073613;28;20033;-72
2021/03/21 02:23:52;;;;;;;27.73;14.13;;;7.10;99.90;;;;;;2086086;28;20111;-71
2021/03/21 02:25:02;;;;;;;21.23;13.15;;;7.10;99.90;;;;;;2076344;28;20478;-72
2021/03/21 02:26:20;;;;;;;25.23;13.75;;;7.10;99.90;;;;;;2081163;28;20029;-72
2021/03/21 02:27:45;;;;;;;22.08;12.85;;;7.10;99.90;;;;;;2080486;28;20026;-72
2021/03/21 02:29:18;;;;;;;25.27;13.70;;;7.10;99.90;;;;;;2083773;28;20028;-72
2021/03/21 02:30:27;;;;;;;22.75;12.68;;;7.10;99.90;;;;;;2085695;28;20096;-72
2021/03/21 02:31:38;;;;;;;23.10;12.95;;;7.10;99.90;;;;;;2080921;28;20076;-71
2021/03/21 02:32:53;;;;;;;23.63;12.95;;;7.10;99.90;;;;;;2080966;28;20029;-71
2021/03/21 02:33:58;;;;;;;25.95;14.35;;;7.20;99.90;;;;;;2081190;28;20032;-72
2021/03/21 02:35:29;;;;;;;25.45;13.00;;;7.10;99.90;;;;;;2078932;28;20093;-71
2021/03/21 02:37:09;;;;;;;26.30;13.75;;;7.10;99.90;;;;;;2078447;28;20022;-71
2021/03/21 02:38:33;;;;;;;22.80;13.27;;;7.10;99.90;;;;;;2080318;28;20041;-71
2021/03/21 02:39:45;;;;;;;27.67;15.13;;;7.10;99.90;;;;;;2080576;28;20037;-72
2021/03/21 02:41:00;;;;;;;26.00;15.13;;;7.10;99.90;;;;;;2082404;28;20398;-71
2021/03/21 02:42:09;;;;;;;25.85;14.82;;;7.10;99.90;;;;;;2080768;28;20056;-72
2021/03/21 02:43:27;;;;;;;26.85;14.63;;;7.20;99.90;;;;;;2080629;28;20475;-72
2021/03/21 02:44:35;;;;;;;25.48;14.77;;;7.20;99.90;;;;;;2081621;28;20022;-71
2021/03/21 02:45:39;;;;;;;26.58;14.60;;;7.20;99.90;;;;;;2080707;28;20392;-72
2021/03/21 02:46:51;;;;;;;25.98;14.38;;;7.20;99.90;;;;;;2080993;28;20532;-72
2021/03/21 02:47:53;;;;;;;25.00;14.68;;;7.20;99.90;;;;;;2081169;28;20539;-72
2021/03/21 02:49:04;;;;;;;25.58;14.10;;;7.30;99.90;;;;;;2080606;28;20395;-72
2021/03/21 02:50:18;;;;;;;21.73;13.23;;;7.30;99.90;;;;;;2077757;28;20061;-72
2021/03/21 02:51:24;;;;;;;23.50;13.98;;;7.30;99.90;;;;;;2077131;28;20017;-72
2021/03/21 02:52:37;;;;;;;25.05;15.43;;;7.30;99.90;;;;;;2085449;28;20380;-71
2021/03/21 02:53:40;;;;;;;;;;;7.30;99.90;;;;;;2090023;28;20021;-72
2021/03/21 02:54:52;;;;;;;21.92;13.50;;;7.20;99.90;;;;;;2088109;28;19912;-71
2021/03/21 02:55:58;;;;;;;23.92;14.10;;;7.20;99.90;;;;;;2085953;28;20104;-72
2021/03/21 02:57:21;;;;;;;29.50;14.73;;;7.20;99.90;;;;;;2089968;28;20396;-71
2021/03/21 02:58:26;;;;;;;23.60;13.93;;;7.20;99.90;;;;;;2073245;28;20030;-71
2021/03/21 02:59:32;;;;;;;28.08;14.10;;;7.20;99.90;;;;;;2078599;28;20497;-73
2021/03/21 03:00:39;;;;;;;26.35;14.93;;;7.20;99.90;;;;;;2080816;28;20022;-73
2021/03/21 03:02:08;;;;;;;23.92;13.63;;;7.20;99.90;;;;;;2080651;28;20092;-71
2021/03/21 03:03:12;;;;;;;22.88;13.65;;;7.20;99.90;;;;;;2074981;28;20783;-71
2021/03/21 03:04:18;;;;;;;22.80;12.98;;;7.10;99.90;;;;;;2080056;28;20056;-71
2021/03/21 03:05:31;;;;;;;22.25;13.45;;;7.10;99.90;;;;;;2076287;28;20156;-71
2021/03/21 03:06:39;;;;;;;24.85;13.32;;;7.10;99.90;;;;;;2073444;28;20030;-71
2021/03/21 03:07:55;;;;;;;20.45;12.27;;;7.20;99.90;;;;;;2080331;28;20030;-72
2021/03/21 03:09:07;;;;;;;25.30;13.90;;;7.10;99.90;;;;;;2081514;28;20024;-73
2021/03/21 03:10:23;;;;;;;22.98;13.15;;;7.10;99.90;;;;;;2077433;28;20025;-71
2021/03/21 03:11:32;;;;;;;22.10;13.38;;;7.10;99.90;;;;;;2079334;28;20029;-71
2021/03/21 03:12:35;;;;;;;22.23;13.55;;;7.10;99.90;;;;;;2083155;28;20151;-71
2021/03/21 03:13:56;;;;;;;21.08;14.02;;;7.00;99.90;;;;;;2080511;28;20026;-72
2021/03/21 03:14:57;;;;;;;23.60;13.57;;;7.00;99.90;;;;;;2081314;28;20024;-70
2021/03/21 03:16:10;;;;;;;27.65;14.00;;;7.00;99.90;;;;;;2081237;28;20100;-74
2021/03/21 03:17:26;;;;;;;24.50;13.93;;;7.00;99.90;;;;;;2080677;28;20020;-71
2021/03/21 03:18:33;;;;;;;24.92;14.90;;;7.00;99.90;;;;;;2072954;28;20026;-72
2021/03/21 03:19:45;;;;;;;25.92;14.68;;;7.00;99.90;;;;;;2076823;28;20108;-72
2021/03/21 03:21:05;;;;;;;25.58;14.20;;;7.00;99.90;;;;;;2073374;28;20545;-71
2021/03/21 03:22:20;;;;;;;23.02;13.57;;;7.00;99.90;;;;;;2085940;28;20032;-72
2021/03/21 03:23:34;;;;;;;24.13;13.93;;;7.00;99.90;;;;;;2074930;28;20029;-71
2021/03/21 03:24:50;;;;;;;27.38;14.05;;;7.00;99.90;;;;;;2074178;28;20120;-70
2021/03/21 03:26:01;;;;;;;24.70;14.50;;;7.00;99.90;;;;;;2074644;28;20572;-71
2021/03/21 03:27:05;;;;;;;25.50;15.05;;;7.00;99.90;;;;;;2085590;28;20025;-72
2021/03/21 03:28:17;;;;;;;23.13;14.75;;;7.00;99.90;;;;;;2081013;28;20033;-72
2021/03/21 03:29:22;;;;;;;23.05;14.75;;;7.00;99.90;;;;;;2065845;28;20703;-71
2021/03/21 03:30:29;;;;;;;25.63;14.50;;;7.00;99.90;;;;;;2073819;28;20021;-71
2021/03/21 03:31:50;;;;;;;22.67;14.10;;;7.00;99.90;;;;;;2076109;28;20026;-72
2021/03/21 03:32:52;;;;;;;23.60;13.57;;;7.10;99.90;;;;;;2073003;28;20072;-71
2021/03/21 03:33:54;;;;;;;24.33;14.00;;;7.00;99.90;;;;;;2077627;28;20493;-71
2021/03/21 03:34:57;;;;;;;24.85;13.43;;;7.10;99.90;;;;;;2080468;28;20036;-71
2021/03/21 03:35:57;;;;;;;18.73;12.82;;;7.00;99.90;;;;;;2072457;28;20026;-71
2021/03/21 03:36:59;;;;;;;23.98;14.07;;;7.10;99.90;;;;;;2075065;28;20017;-71
2021/03/21 03:38:00;;;;;;;24.80;15.02;;;7.10;99.90;;;;;;2072689;28;20029;-72
2021/03/21 03:39:02;;;;;;;23.03;13.27;;;7.10;99.90;;;;;;2067387;28;20568;-72
2021/03/21 03:40:06;;;;;;;23.10;13.70;;;7.10;99.90;;;;;;2071302;28;20265;-72
2021/03/21 03:41:20;;;;;;;27.52;15.05;;;7.10;99.90;;;;;;2080523;28;20022;-71
2021/03/21 03:42:41;;;;;;;25.48;14.30;;;7.10;99.90;;;;;;2080951;28;20027;-74
2021/03/21 03:44:10;;;;;;;24.98;14.43;;;7.10;99.90;;;;;;2079894;28;20021;-72
2021/03/21 03:45:52;;;;;;;24.15;14.15;;;7.10;99.90;;;;;;2080843;28;20080;-72
2021/03/21 03:46:58;;;;;;;23.58;14.15;;;7.10;99.90;;;;;;2065590;28;20041;-71
2021/03/21 03:48:19;;;;;;;21.83;13.43;;;7.10;99.90;;;;;;2073116;28;20125;-72
2021/03/21 03:49:37;;;;;;;23.88;14.00;;;7.10;99.90;;;;;;2081849;28;20025;-71
2021/03/21 03:51:09;;;;;;;24.50;13.15;;;7.10;99.90;;;;;;2086155;28;20048;-71
2021/03/21 03:52:39;;;;;;;22.75;13.90;;;7.10;99.90;;;;;;2075540;28;20076;-72
2021/03/21 03:54:01;;;;;;;23.88;13.60;;;7.10;99.90;;;;;;2083015;28;20025;-72
2021/03/21 03:55:23;;;;;;;25.20;14.88;;;7.10;99.90;;;;;;2090841;28;20025;-72
2021/03/21 03:56:44;;;;;;;28.40;15.85;;;7.20;99.90;;;;;;2081527;28;20029;-72
2021/03/21 03:57:56;;;;;;;28.85;15.65;;;7.20;99.90;;;;;;2083145;28;20028;-72
2021/03/21 03:59:24;;;;;;;25.90;14.25;;;7.20;99.90;;;;;;2087520;28;20048;-73
2021/03/21 04:00:48;;;;;;;25.65;13.93;;;7.20;99.90;;;;;;2090004;28;20060;-72
2021/03/21 04:02:07;;;;;;;25.05;14.73;;;7.20;99.90;;;;;;2087116;28;20052;-72
2021/03/21 04:03:19;;;;;;;24.58;13.35;;;7.20;99.90;;;;;;2074515;28;20018;-72
2021/03/21 04:04:41;;;;;;;23.50;14.07;;;7.20;99.90;;;;;;2081069;28;20028;-72
2021/03/21 04:05:48;;;;;;;22.38;14.05;;;7.20;99.90;;;;;;2079062;28;20164;-71
2021/03/21 04:07:40;;;;;;;26.45;14.93;;;7.20;99.90;;;;;;2073973;28;20104;-72
2021/03/21 04:08:52;;;;;;;25.65;13.93;;;7.20;99.90;;;;;;2065303;28;20057;-73
2021/03/21 04:10:17;;;;;;;27.35;16.00;;;7.20;99.90;;;;;;2072842;28;20042;-72
2021/03/21 04:11:25;;;;;;;24.02;13.25;;;7.20;99.90;;;;;;2079489;28;20060;-71
2021/03/21 04:12:41;;;;;;;22.10;13.43;;;7.20;99.90;;;;;;2081245;28;20025;-71
2021/03/21 04:13:45;;;;;;;23.60;13.18;;;7.20;99.90;;;;;;2077931;28;20029;-72
2021/03/21 04:14:56;;;;;;;22.98;14.15;;;7.20;99.90;;;;;;2079424;28;20026;-71
2021/03/21 04:15:59;;;;;;;23.02;13.52;;;7.20;99.90;;;;;;2081744;28;20018;-71
2021/03/21 04:17:05;;;;;;;23.85;13.70;;;7.20;99.90;;;;;;2074252;28;20028;-71
2021/03/21 04:18:26;;;;;;;20.00;13.30;;;7.20;99.90;;;;;;2079209;28;20056;-71
2021/03/21 04:19:34;;;;;;;25.27;14.60;;;7.10;99.90;;;;;;2082019;28;20536;-72
2021/03/21 04:20:43;;;;;;;26.55;13.95;;;7.20;99.90;;;;;;2080850;28;20076;-71
2021/03/21 04:21:55;;;;;;;21.55;13.98;;;7.20;99.90;;;;;;2086534;28;20034;-72
2021/03/21 04:23:13;;;;;;;23.65;14.10;;;7.10;99.90;;;;;;2081711;28;20017;-71
2021/03/21 04:24:29;;;;;;;24.23;13.35;;;7.20;99.90;;;;;;2074411;28;20037;-71
2021/03/21 04:25:36;;;;;;;24.48;14.38;;;7.10;99.90;;;;;;2075299;28;20060;-71
2021/03/21 04:26:49;;;;;;;28.48;14.05;;;7.10;99.90;;;;;;2081891;28;20017;-73
2021/03/21 04:28:08;;;;;;;24.13;14.18;;;7.10;99.90;;;;;;2082127;28;20032;-71
2021/03/21 04:29:21;;;;;;;26.17;14.00;;;7.10;99.90;;;;;;2074346;28;20061;-71
2021/03/21 04:30:40;;;;;;;24.52;14.25;;;7.10;99.90;;;;;;2075164;28;20029;-71
2021/03/21 04:31:42;;;;;;;27.08;15.15;;;7.10;99.90;;;;;;2077425;28;20029;-71
2021/03/21 04:32:49;;;;;;;25.52;14.23;;;7.10;99.90;;;;;;2085951;28;20441;-71
2021/03/21 04:33:57;;;;;;;31.13;16.05;;;7.10;99.90;;;;;;2079128;28;20734;-71
2021/03/21 04:35:04;;;;;;;25.23;14.48;;;7.10;99.90;;;;;;2082402;28;20405;-71
2021/03/21 04:36:14;;;;;;;27.25;14.70;;;7.10;99.90;;;;;;2082532;28;20029;-72
2021/03/21 04:37:17;;;;;;;25.20;14.85;;;7.10;99.90;;;;;;2082350;28;20022;-72
2021/03/21 04:38:31;;;;;;;28.50;14.70;;;7.10;99.90;;;;;;2082475;28;20793;-72
2021/03/21 04:39:35;;;;;;;27.75;15.13;;;7.10;99.90;;;;;;2078653;28;20034;-71
2021/03/21 04:40:37;;;;;;;24.52;13.75;;;7.10;99.90;;;;;;2076512;28;20115;-72
2021/03/21 04:41:47;;;;;;;28.35;14.05;;;7.10;99.90;;;;;;2079356;28;20025;-71
2021/03/21 04:42:56;;;;;;;26.50;14.77;;;7.10;99.90;;;;;;2073770;28;20058;-71
2021/03/21 04:44:16;;;;;;;27.42;15.50;;;7.10;99.90;;;;;;2076637;28;20018;-71
2021/03/21 04:45:22;;;;;;;24.73;14.52;;;7.20;99.90;;;;;;2075589;28;20062;-71
2021/03/21 04:46:33;;;;;;;25.38;15.10;;;7.20;99.90;;;;;;2081704;28;20102;-71
2021/03/21 04:47:39;;;;;;;23.88;14.90;;;7.20;99.90;;;;;;2075217;28;20072;-71
2021/03/21 04:48:39;;;;;;;25.90;14.57;;;7.20;99.90;;;;;;2075407;28;20037;-72
2021/03/21 04:49:41;;;;;;;27.08;14.55;;;7.20;99.90;;;;;;2082516;28;20022;-72
2021/03/21 04:50:41;;;;;;;23.30;13.60;;;7.20;99.90;;;;;;2082140;28;20100;-72
2021/03/21 04:51:45;;;;;;;23.58;13.60;;;7.20;99.90;;;;;;2082561;28;20033;-72
2021/03/21 04:52:54;;;;;;;26.13;15.05;;;7.20;99.90;;;;;;2082349;28;20036;-72
2021/03/21 04:54:00;;;;;;;24.77;14.07;;;7.20;99.90;;;;;;2081621;28;20398;-71
2021/03/21 04:55:03;;;;;;;25.52;13.57;;;7.20;99.90;;;;;;2072849;28;20060;-72
2021/03/21 04:56:15;;;;;;;28.65;15.02;;;7.20;99.90;;;;;;2081402;28;20109;-71
2021/03/21 04:57:22;;;;;;;31.65;16.05;;;7.20;99.90;;;;;;2076417;28;20030;-72
2021/03/21 04:58:36;;;;;;;28.23;15.65;;;7.20;99.90;;;;;;2082262;28;20047;-71
2021/03/21 04:59:38;;;;;;;20.70;13.82;;;7.20;99.90;;;;;;2081146;28;20037;-71
2021/03/21 05:00:43;;;;;;;26.85;14.55;;;7.20;99.90;;;;;;2081571;28;20030;-72
2021/03/21 05:02:04;;;;;;;29.35;14.95;;;7.20;99.90;;;;;;2081966;28;20049;-71
2021/03/21 05:03:15;;;;;;;31.45;16.75;;;7.20;99.90;;;;;;2077727;28;20025;-72
2021/03/21 05:04:23;;;;;;;27.58;15.18;;;7.20;99.90;;;;;;2081261;28;20685;-72
2021/03/21 05:05:34;;;;;;;27.27;14.68;;;7.20;99.90;;;;;;2081622;28;20026;-72
2021/03/21 05:06:48;;;;;;;29.27;15.35;;;7.20;99.90;;;;;;2080081;28;20025;-71
2021/03/21 05:07:51;;;;;;;32.67;15.75;;;7.30;99.90;;;;;;2086527;28;20013;-71
2021/03/21 05:08:59;;;;;;;24.08;14.05;;;7.30;99.90;;;;;;2090660;28;20025;-71
2021/03/21 05:10:11;;;;;;;26.52;14.82;;;7.30;99.90;;;;;;2089763;28;20305;-71
2021/03/21 05:11:13;;;;;;;26.05;14.45;;;7.20;99.90;;;;;;2082916;28;20915;-71
2021/03/21 05:12:36;;;;;;;24.95;15.85;;;7.20;99.90;;;;;;2077203;28;20030;-72
2021/03/21 05:13:51;;;;;;;27.10;14.80;;;7.20;99.90;;;;;;2073598;28;20032;-72
2021/03/21 05:15:04;;;;;;;24.27;14.73;;;7.20;99.90;;;;;;2080864;28;20374;-72
2021/03/21 05:16:26;;;;;;;24.98;14.52;;;7.20;99.90;;;;;;2084845;28;20021;-73
2021/03/21 05:17:36;;;;;;;22.63;14.85;;;7.20;99.90;;;;;;2089716;28;20055;-72
2021/03/21 05:19:04;;;;;;;25.45;14.40;;;7.20;99.90;;;;;;2079384;28;20030;-72
2021/03/21 05:20:14;;;;;;;28.27;15.02;;;7.20;99.90;;;;;;2082244;28;20061;-71
2021/03/21 05:21:39;;;;;;;26.48;14.80;;;7.20;99.90;;;;;;2081449;28;20089;-71
2021/03/21 05:22:47;;;;;;;25.40;13.88;;;7.20;99.90;;;;;;2073734;28;20087;-71
2021/03/21 05:24:00;;;;;;;27.55;15.13;;;7.20;99.90;;;;;;2080240;28;20049;-71
2021/03/21 05:25:29;;;;;;;26.38;14.27;;;7.20;99.90;;;;;;2081473;28;20176;-71
2021/03/21 05:27:07;;;;;;;23.75;14.35;;;7.30;99.90;;;;;;2077808;28;20088;-73
2021/03/21 05:28:40;;;;;;;29.38;15.07;;;7.30;99.90;;;;;;2080876;28;20029;-71
2021/03/21 05:29:52;;;;;;;29.98;14.40;;;7.30;99.90;;;;;;2082271;28;20036;-71
2021/03/21 05:30:52;;;;;;;25.50;14.48;;;7.30;99.90;;;;;;2079811;28;20394;-71
2021/03/21 05:31:55;;;;;;;24.17;14.27;;;7.30;99.90;;;;;;2077825;28;20079;-71
2021/03/21 05:32:57;;;;;;;24.50;15.02;;;7.30;99.90;;;;;;2081758;28;20021;-72
2021/03/21 05:33:59;;;;;;;27.48;16.00;;;7.30;99.90;;;;;;2080469;28;20432;-71
2021/03/21 05:35:00;;;;;;;25.38;14.45;;;7.30;99.90;;;;;;2081563;28;20408;-74
2021/03/21 05:36:11;;;;;;;34.33;16.77;;;7.30;99.90;;;;;;2076734;28;20030;-71
2021/03/21 05:37:48;;;;;;;26.17;16.02;;;7.30;99.90;;;;;;2078688;28;20504;-71
2021/03/21 05:38:56;;;;;;;28.33;15.85;;;7.30;99.90;;;;;;2081802;28;20500;-72
2021/03/21 05:40:23;;;;;;;29.13;15.32;;;7.30;99.90;;;;;;2081344;28;20028;-72
2021/03/21 05:41:41;;;;;;;30.10;16.35;;;7.30;99.90;;;;;;2073024;28;20457;-71
2021/03/21 05:43:14;;;;;;;30.52;16.58;;;7.30;99.90;;;;;;2080992;28;20080;-72
2021/03/21 05:44:44;;;;;;;33.88;16.80;;;7.30;99.90;;;;;;2081039;28;20532;-71
2021/03/21 05:46:10;;;;;;;30.48;16.35;;;7.30;99.90;;;;;;2080069;28;20075;-73
2021/03/21 05:47:23;;;;;;;40.55;18.20;;;7.40;99.90;;;;;;2081894;28;20029;-72
2021/03/21 05:48:53;;;;;;;35.08;17.35;;;7.40;99.90;;;;;;2089457;28;20462;-72
2021/03/21 05:50:20;;;;;;;33.45;16.95;;;7.40;99.90;;;;;;2078822;28;20029;-71
2021/03/21 05:51:39;;;;;;;33.15;16.73;;;7.40;99.90;;;;;;2064732;28;20042;-72
2021/03/21 05:53:14;;;;;;;32.47;16.85;;;7.40;99.90;;;;;;2072961;28;20452;-71
2021/03/21 05:54:45;;;;;;;37.55;17.02;;;7.50;99.90;;;;;;2074267;28;20036;-71
2021/03/21 05:56:30;;;;;;;32.95;16.90;;;7.50;99.90;;;;;;2077062;28;20049;-71
2021/03/21 05:57:31;;;;;;;35.45;17.20;;;7.50;99.90;;;;;;2075556;28;20041;-72
2021/03/21 05:59:09;;;;;;;38.22;18.08;;;7.60;99.90;;;;;;2081230;28;20576;-72